sensor_id;sensor_type;location;lat;lon;timestamp;temperature;humidity
68385;DHT22;55336;43.062;25.626;2022-11-02T00:00:25;5.50;99.90
68385;DHT22;55336;43.062;25.626;2022-11-02T00:02:52;5.50;99.90
68385;DHT22;55336;43.062;25.626;2022-11-02T00:05:18;5.40;99.90
68385;DHT22;55336;43.062;25.626;2022-11-02T00:07:49;5.40;99.90
68385;DHT22;55336;43.062;25.626;2022-11-02T00:10:15;5.50;99.90
68385;DHT22;55336;43.062;25.626;2022-11-02T00:12:41;5.50;99.90
68385;DHT22;55336;43.062;25.626;2022-11-02T00:15:07;5.50;99.90
68385;DHT22;55336;43.062;25.626;2022-11-02T00:17:33;5.40;99.90
68385;DHT22;55336;43.062;25.626;2022-11-02T00:20:00;5.30;99.90
68385;DHT22;55336;43.062;25.626;2022-11-02T00:22:26;5.30;99.90
68385;DHT22;55336;43.062;25.626;2022-11-02T00:24:51;5.30;99.90
68385;DHT22;55336;43.062;25.626;2022-11-02T00:27:17;5.20;99.90
68385;DHT22;55336;43.062;25.626;2022-11-02T00:29:43;5.20;99.90
68385;DHT22;55336;43.062;25.626;2022-11-02T00:32:09;5.20;99.90
68385;DHT22;55336;43.062;25.626;2022-11-02T00:34:35;5.20;99.90
68385;DHT22;55336;43.062;25.626;2022-11-02T00:37:01;5.20;99.90
68385;DHT22;55336;43.062;25.626;2022-11-02T00:39:27;5.20;99.90
68385;DHT22;55336;43.062;25.626;2022-11-02T00:41:53;5.10;99.90
68385;DHT22;55336;43.062;25.626;2022-11-02T00:44:19;5.10;99.90
68385;DHT22;55336;43.062;25.626;2022-11-02T00:46:45;5.00;99.90
68385;DHT22;55336;43.062;25.626;2022-11-02T00:49:10;5.10;99.90
68385;DHT22;55336;43.062;25.626;2022-11-02T00:51:36;5.00;99.90
68385;DHT22;55336;43.062;25.626;2022-11-02T00:54:02;5.00;99.90
68385;DHT22;55336;43.062;25.626;2022-11-02T00:56:28;4.90;99.90
68385;DHT22;55336;43.062;25.626;2022-11-02T00:58:53;4.90;99.90
68385;DHT22;55336;43.062;25.626;2022-11-02T01:01:19;4.90;99.90
68385;DHT22;55336;43.062;25.626;2022-11-02T01:03:45;4.80;99.90
68385;DHT22;55336;43.062;25.626;2022-11-02T01:06:11;4.80;99.90
68385;DHT22;55336;43.062;25.626;2022-11-02T01:08:37;4.80;99.90
68385;DHT22;55336;43.062;25.626;2022-11-02T01:11:20;4.80;99.90
68385;DHT22;55336;43.062;25.626;2022-11-02T01:13:46;4.80;99.90
68385;DHT22;55336;43.062;25.626;2022-11-02T01:16:12;4.80;99.90
68385;DHT22;55336;43.062;25.626;2022-11-02T01:18:38;4.80;99.90
68385;DHT22;55336;43.062;25.626;2022-11-02T01:21:05;4.80;99.90
68385;DHT22;55336;43.062;25.626;2022-11-02T01:23:31;4.80;99.90
68385;DHT22;55336;43.062;25.626;2022-11-02T01:25:57;4.80;99.90
68385;DHT22;55336;43.062;25.626;2022-11-02T01:28:23;4.70;99.90
68385;DHT22;55336;43.062;25.626;2022-11-02T01:30:49;4.70;99.90
68385;DHT22;55336;43.062;25.626;2022-11-02T01:33:15;4.80;99.90
68385;DHT22;55336;43.062;25.626;2022-11-02T01:35:41;4.70;99.90
68385;DHT22;55336;43.062;25.626;2022-11-02T01:38:07;4.70;99.90
68385;DHT22;55336;43.062;25.626;2022-11-02T01:40:33;4.70;99.90
68385;DHT22;55336;43.062;25.626;2022-11-02T01:42:59;4.70;99.90
68385;DHT22;55336;43.062;25.626;2022-11-02T01:45:25;4.70;99.90
68385;DHT22;55336;43.062;25.626;2022-11-02T01:47:51;4.60;99.90
68385;DHT22;55336;43.062;25.626;2022-11-02T01:50:19;4.60;99.90
68385;DHT22;55336;43.062;25.626;2022-11-02T01:52:46;4.60;99.90
68385;DHT22;55336;43.062;25.626;2022-11-02T01:55:13;4.50;99.90
68385;DHT22;55336;43.062;25.626;2022-11-02T01:57:42;4.50;99.90
68385;DHT22;55336;43.062;25.626;2022-11-02T02:00:10;4.50;99.90
68385;DHT22;55336;43.062;25.626;2022-11-02T02:02:38;4.50;99.90
68385;DHT22;55336;43.062;25.626;2022-11-02T02:05:06;4.40;99.90
68385;DHT22;55336;43.062;25.626;2022-11-02T02:07:32;4.40;99.90
68385;DHT22;55336;43.062;25.626;2022-11-02T02:09:59;4.40;99.90
68385;DHT22;55336;43.062;25.626;2022-11-02T02:12:25;4.30;99.90
68385;DHT22;55336;43.062;25.626;2022-11-02T02:14:52;4.30;99.90
68385;DHT22;55336;43.062;25.626;2022-11-02T02:27:27;4.30;99.90
68385;DHT22;55336;43.062;25.626;2022-11-02T02:32:35;4.30;99.90
68385;DHT22;55336;43.062;25.626;2022-11-02T02:40:19;4.20;99.90
68385;DHT22;55336;43.062;25.626;2022-11-02T02:43:06;4.20;99.90
68385;DHT22;55336;43.062;25.626;2022-11-02T02:45:36;4.20;99.90
68385;DHT22;55336;43.062;25.626;2022-11-02T02:48:19;4.20;99.90
68385;DHT22;55336;43.062;25.626;2022-11-02T02:53:27;4.20;99.90
68385;DHT22;55336;43.062;25.626;2022-11-02T02:55:53;4.10;99.90
68385;DHT22;55336;43.062;25.626;2022-11-02T02:58:27;4.10;99.90
68385;DHT22;55336;43.062;25.626;2022-11-02T03:00:54;4.20;99.90
68385;DHT22;55336;43.062;25.626;2022-11-02T03:03:24;4.10;99.90
68385;DHT22;55336;43.062;25.626;2022-11-02T03:05:58;4.10;99.90
68385;DHT22;55336;43.062;25.626;2022-11-02T03:08:26;4.10;99.90
68385;DHT22;55336;43.062;25.626;2022-11-02T03:11:04;4.10;99.90
68385;DHT22;55336;43.062;25.626;2022-11-02T03:13:51;4.00;99.90
68385;DHT22;55336;43.062;25.626;2022-11-02T03:19:00;4.00;99.90
68385;DHT22;55336;43.062;25.626;2022-11-02T03:21:38;4.00;99.90
68385;DHT22;55336;43.062;25.626;2022-11-02T03:26:52;3.90;99.90
68385;DHT22;55336;43.062;25.626;2022-11-02T03:29:25;3.90;99.90
68385;DHT22;55336;43.062;25.626;2022-11-02T03:34:22;3.90;99.90
68385;DHT22;55336;43.062;25.626;2022-11-02T03:39:22;3.80;99.90
68385;DHT22;55336;43.062;25.626;2022-11-02T03:41:50;3.80;99.90
68385;DHT22;55336;43.062;25.626;2022-11-02T03:44:19;3.80;99.90
68385;DHT22;55336;43.062;25.626;2022-11-02T03:46:46;3.80;99.90
68385;DHT22;55336;43.062;25.626;2022-11-02T03:49:15;3.80;99.90
68385;DHT22;55336;43.062;25.626;2022-11-02T03:51:42;3.80;99.90
68385;DHT22;55336;43.062;25.626;2022-11-02T03:54:14;3.70;99.90
68385;DHT22;55336;43.062;25.626;2022-11-02T03:56:48;3.70;99.90
68385;DHT22;55336;43.062;25.626;2022-11-02T03:59:15;3.70;99.90
68385;DHT22;55336;43.062;25.626;2022-11-02T04:01:42;3.70;99.90
68385;DHT22;55336;43.062;25.626;2022-11-02T04:04:08;3.60;99.90
68385;DHT22;55336;43.062;25.626;2022-11-02T04:06:34;3.70;99.90
68385;DHT22;55336;43.062;25.626;2022-11-02T04:09:00;3.70;99.90
68385;DHT22;55336;43.062;25.626;2022-11-02T04:11:26;3.70;99.90
68385;DHT22;55336;43.062;25.626;2022-11-02T04:14:11;3.70;99.90
68385;DHT22;55336;43.062;25.626;2022-11-02T04:16:55;3.70;99.90
68385;DHT22;55336;43.062;25.626;2022-11-02T04:19:41;3.70;99.90
68385;DHT22;55336;43.062;25.626;2022-11-02T04:22:07;3.70;99.90
68385;DHT22;55336;43.062;25.626;2022-11-02T04:24:52;3.70;99.90
68385;DHT22;55336;43.062;25.626;2022-11-02T04:27:37;3.70;99.90
68385;DHT22;55336;43.062;25.626;2022-11-02T04:30:02;3.60;99.90
68385;DHT22;55336;43.062;25.626;2022-11-02T04:32:29;3.60;99.90
68385;DHT22;55336;43.062;25.626;2022-11-02T04:35:13;3.60;99.90
68385;DHT22;55336;43.062;25.626;2022-11-02T04:37:42;3.50;99.90
68385;DHT22;55336;43.062;25.626;2022-11-02T04:40:26;3.50;99.90
68385;DHT22;55336;43.062;25.626;2022-11-02T04:42:52;3.50;99.90
68385;DHT22;55336;43.062;25.626;2022-11-02T04:45:18;3.50;99.90
68385;DHT22;55336;43.062;25.626;2022-11-02T04:47:44;3.50;99.90
68385;DHT22;55336;43.062;25.626;2022-11-02T04:50:09;3.60;99.90
68385;DHT22;55336;43.062;25.626;2022-11-02T04:52:35;3.50;99.90
68385;DHT22;55336;43.062;25.626;2022-11-02T04:55:01;3.50;99.90
68385;DHT22;55336;43.062;25.626;2022-11-02T04:57:27;3.50;99.90
68385;DHT22;55336;43.062;25.626;2022-11-02T04:59:53;3.50;99.90
68385;DHT22;55336;43.062;25.626;2022-11-02T05:02:19;3.60;99.90
68385;DHT22;55336;43.062;25.626;2022-11-02T05:04:44;3.60;99.90
68385;DHT22;55336;43.062;25.626;2022-11-02T05:07:10;3.60;99.90
68385;DHT22;55336;43.062;25.626;2022-11-02T05:09:36;3.60;99.90
68385;DHT22;55336;43.062;25.626;2022-11-02T05:12:02;3.60;99.90
68385;DHT22;55336;43.062;25.626;2022-11-02T05:14:29;3.70;99.90
68385;DHT22;55336;43.062;25.626;2022-11-02T05:16:55;3.70;99.90
68385;DHT22;55336;43.062;25.626;2022-11-02T05:19:21;3.70;99.90
68385;DHT22;55336;43.062;25.626;2022-11-02T05:21:47;3.80;99.90
68385;DHT22;55336;43.062;25.626;2022-11-02T05:24:13;3.80;99.90
68385;DHT22;55336;43.062;25.626;2022-11-02T05:26:39;3.90;99.90
68385;DHT22;55336;43.062;25.626;2022-11-02T05:29:05;3.90;99.90
68385;DHT22;55336;43.062;25.626;2022-11-02T05:31:30;4.10;99.90
68385;DHT22;55336;43.062;25.626;2022-11-02T05:33:56;4.20;99.90
68385;DHT22;55336;43.062;25.626;2022-11-02T05:36:22;4.30;99.90
68385;DHT22;55336;43.062;25.626;2022-11-02T05:38:51;4.40;99.90
68385;DHT22;55336;43.062;25.626;2022-11-02T05:41:16;4.00;99.90
68385;DHT22;55336;43.062;25.626;2022-11-02T05:43:42;4.60;99.90
68385;DHT22;55336;43.062;25.626;2022-11-02T05:46:08;4.70;99.90
68385;DHT22;55336;43.062;25.626;2022-11-02T05:48:34;4.80;99.90
68385;DHT22;55336;43.062;25.626;2022-11-02T05:51:03;4.90;99.90
68385;DHT22;55336;43.062;25.626;2022-11-02T05:53:29;5.00;99.90
68385;DHT22;55336;43.062;25.626;2022-11-02T05:55:59;5.10;99.90
68385;DHT22;55336;43.062;25.626;2022-11-02T05:58:25;5.30;99.90
68385;DHT22;55336;43.062;25.626;2022-11-02T06:00:51;5.40;99.90
68385;DHT22;55336;43.062;25.626;2022-11-02T06:03:17;5.60;99.90
68385;DHT22;55336;43.062;25.626;2022-11-02T06:05:43;5.70;99.90
68385;DHT22;55336;43.062;25.626;2022-11-02T06:08:08;5.90;99.90
68385;DHT22;55336;43.062;25.626;2022-11-02T06:10:34;6.10;99.90
68385;DHT22;55336;43.062;25.626;2022-11-02T06:13:00;6.30;99.90
68385;DHT22;55336;43.062;25.626;2022-11-02T06:15:27;6.60;99.90
68385;DHT22;55336;43.062;25.626;2022-11-02T06:17:53;6.90;99.90
68385;DHT22;55336;43.062;25.626;2022-11-02T06:20:19;7.20;99.90
68385;DHT22;55336;43.062;25.626;2022-11-02T06:22:45;7.60;99.90
68385;DHT22;55336;43.062;25.626;2022-11-02T06:25:11;8.00;99.90
68385;DHT22;55336;43.062;25.626;2022-11-02T06:27:37;8.40;99.90
68385;DHT22;55336;43.062;25.626;2022-11-02T06:30:03;8.80;99.90
68385;DHT22;55336;43.062;25.626;2022-11-02T06:32:29;9.00;99.90
68385;DHT22;55336;43.062;25.626;2022-11-02T06:34:54;9.40;99.90
68385;DHT22;55336;43.062;25.626;2022-11-02T06:37:20;9.80;99.90
68385;DHT22;55336;43.062;25.626;2022-11-02T06:39:47;10.00;99.90
68385;DHT22;55336;43.062;25.626;2022-11-02T06:42:13;10.20;99.90
68385;DHT22;55336;43.062;25.626;2022-11-02T06:44:38;10.60;99.90
68385;DHT22;55336;43.062;25.626;2022-11-02T06:47:04;11.00;99.90
68385;DHT22;55336;43.062;25.626;2022-11-02T06:49:30;11.30;99.90
68385;DHT22;55336;43.062;25.626;2022-11-02T06:51:55;11.70;99.90
68385;DHT22;55336;43.062;25.626;2022-11-02T06:54:21;12.00;99.90
68385;DHT22;55336;43.062;25.626;2022-11-02T06:56:47;12.30;99.90
68385;DHT22;55336;43.062;25.626;2022-11-02T06:59:13;12.60;99.90
68385;DHT22;55336;43.062;25.626;2022-11-02T07:01:38;12.70;99.90
68385;DHT22;55336;43.062;25.626;2022-11-02T07:04:04;13.00;99.90
68385;DHT22;55336;43.062;25.626;2022-11-02T07:06:29;13.20;99.90
68385;DHT22;55336;43.062;25.626;2022-11-02T07:08:55;13.50;99.90
68385;DHT22;55336;43.062;25.626;2022-11-02T07:11:21;13.80;99.90
68385;DHT22;55336;43.062;25.626;2022-11-02T07:13:46;14.20;99.90
68385;DHT22;55336;43.062;25.626;2022-11-02T07:16:12;14.60;99.90
68385;DHT22;55336;43.062;25.626;2022-11-02T07:18:38;14.90;99.90
68385;DHT22;55336;43.062;25.626;2022-11-02T07:21:04;15.00;99.90
68385;DHT22;55336;43.062;25.626;2022-11-02T07:23:30;15.40;99.90
68385;DHT22;55336;43.062;25.626;2022-11-02T07:25:55;15.60;99.90
68385;DHT22;55336;43.062;25.626;2022-11-02T07:28:21;15.80;99.90
68385;DHT22;55336;43.062;25.626;2022-11-02T07:30:47;16.20;99.90
68385;DHT22;55336;43.062;25.626;2022-11-02T07:33:13;16.60;99.90
68385;DHT22;55336;43.062;25.626;2022-11-02T07:35:38;17.00;97.10
68385;DHT22;55336;43.062;25.626;2022-11-02T07:38:04;17.30;92.90
68385;DHT22;55336;43.062;25.626;2022-11-02T07:40:31;17.30;90.50
68385;DHT22;55336;43.062;25.626;2022-11-02T07:42:57;17.50;88.90
68385;DHT22;55336;43.062;25.626;2022-11-02T07:45:23;17.90;86.30
68385;DHT22;55336;43.062;25.626;2022-11-02T07:47:49;18.40;84.50
68385;DHT22;55336;43.062;25.626;2022-11-02T07:50:16;18.70;79.20
68385;DHT22;55336;43.062;25.626;2022-11-02T07:52:52;19.00;77.90
68385;DHT22;55336;43.062;25.626;2022-11-02T07:55:19;19.20;74.20
68385;DHT22;55336;43.062;25.626;2022-11-02T07:57:51;19.40;72.70
68385;DHT22;55336;43.062;25.626;2022-11-02T08:00:17;19.50;73.50
68385;DHT22;55336;43.062;25.626;2022-11-02T08:02:43;19.80;71.70
68385;DHT22;55336;43.062;25.626;2022-11-02T08:05:08;20.10;69.80
68385;DHT22;55336;43.062;25.626;2022-11-02T08:07:34;20.20;68.50
68385;DHT22;55336;43.062;25.626;2022-11-02T08:10:00;20.30;66.60
68385;DHT22;55336;43.062;25.626;2022-11-02T08:12:26;20.50;65.70
68385;DHT22;55336;43.062;25.626;2022-11-02T08:14:51;20.80;63.70
68385;DHT22;55336;43.062;25.626;2022-11-02T08:17:17;21.00;63.30
68385;DHT22;55336;43.062;25.626;2022-11-02T08:19:43;21.10;62.70
68385;DHT22;55336;43.062;25.626;2022-11-02T08:22:08;21.20;61.30
68385;DHT22;55336;43.062;25.626;2022-11-02T08:24:34;21.50;60.40
68385;DHT22;55336;43.062;25.626;2022-11-02T08:27:00;21.80;58.00
68385;DHT22;55336;43.062;25.626;2022-11-02T08:29:26;21.90;56.20
68385;DHT22;55336;43.062;25.626;2022-11-02T08:31:51;22.20;55.50
68385;DHT22;55336;43.062;25.626;2022-11-02T08:34:17;22.50;54.50
68385;DHT22;55336;43.062;25.626;2022-11-02T08:36:43;23.00;54.00
68385;DHT22;55336;43.062;25.626;2022-11-02T08:39:08;23.40;51.60
68385;DHT22;55336;43.062;25.626;2022-11-02T08:41:34;23.50;50.50
68385;DHT22;55336;43.062;25.626;2022-11-02T08:44:00;23.90;49.60
68385;DHT22;55336;43.062;25.626;2022-11-02T08:46:25;24.40;47.40
68385;DHT22;55336;43.062;25.626;2022-11-02T08:48:51;24.70;47.20
68385;DHT22;55336;43.062;25.626;2022-11-02T08:51:16;24.80;47.60
68385;DHT22;55336;43.062;25.626;2022-11-02T08:53:42;25.00;47.60
68385;DHT22;55336;43.062;25.626;2022-11-02T08:56:08;25.40;45.30
68385;DHT22;55336;43.062;25.626;2022-11-02T08:58:33;25.70;44.10
68385;DHT22;55336;43.062;25.626;2022-11-02T09:00:59;26.10;43.40
68385;DHT22;55336;43.062;25.626;2022-11-02T09:03:25;26.20;42.20
68385;DHT22;55336;43.062;25.626;2022-11-02T09:05:56;26.10;42.50
68385;DHT22;55336;43.062;25.626;2022-11-02T09:08:22;26.30;42.90
68385;DHT22;55336;43.062;25.626;2022-11-02T09:10:51;26.70;40.20
68385;DHT22;55336;43.062;25.626;2022-11-02T09:13:17;26.50;40.20
68385;DHT22;55336;43.062;25.626;2022-11-02T09:15:48;26.40;40.70
68385;DHT22;55336;43.062;25.626;2022-11-02T09:18:14;26.70;40.50
68385;DHT22;55336;43.062;25.626;2022-11-02T09:20:39;26.60;40.40
68385;DHT22;55336;43.062;25.626;2022-11-02T09:23:05;26.80;39.80
68385;DHT22;55336;43.062;25.626;2022-11-02T09:25:31;27.20;38.30
68385;DHT22;55336;43.062;25.626;2022-11-02T09:27:57;27.60;37.10
68385;DHT22;55336;43.062;25.626;2022-11-02T09:30:23;28.10;36.60
68385;DHT22;55336;43.062;25.626;2022-11-02T09:32:52;28.20;35.80
68385;DHT22;55336;43.062;25.626;2022-11-02T09:35:18;28.30;35.00
68385;DHT22;55336;43.062;25.626;2022-11-02T09:37:44;28.70;34.10
68385;DHT22;55336;43.062;25.626;2022-11-02T09:40:10;28.90;33.50
68385;DHT22;55336;43.062;25.626;2022-11-02T09:45:20;29.00;32.90
68385;DHT22;55336;43.062;25.626;2022-11-02T09:47:48;29.30;32.20
68385;DHT22;55336;43.062;25.626;2022-11-02T09:50:20;29.70;31.40
68385;DHT22;55336;43.062;25.626;2022-11-02T09:52:48;30.00;31.10
68385;DHT22;55336;43.062;25.626;2022-11-02T09:55:18;30.20;29.80
68385;DHT22;55336;43.062;25.626;2022-11-02T09:57:44;30.40;30.00
68385;DHT22;55336;43.062;25.626;2022-11-02T10:00:11;30.30;29.80
68385;DHT22;55336;43.062;25.626;2022-11-02T10:05:16;30.70;28.60
68385;DHT22;55336;43.062;25.626;2022-11-02T10:08:04;29.80;27.60
68385;DHT22;55336;43.062;25.626;2022-11-02T10:10:35;29.60;27.70
68385;DHT22;55336;43.062;25.626;2022-11-02T10:15:31;29.30;26.70
68385;DHT22;55336;43.062;25.626;2022-11-02T10:18:00;29.40;27.10
68385;DHT22;55336;43.062;25.626;2022-11-02T10:20:29;29.30;27.00
68385;DHT22;55336;43.062;25.626;2022-11-02T10:23:01;29.30;26.70
68385;DHT22;55336;43.062;25.626;2022-11-02T10:25:29;29.60;25.40
68385;DHT22;55336;43.062;25.626;2022-11-02T10:28:09;29.80;26.00
68385;DHT22;55336;43.062;25.626;2022-11-02T10:30:36;30.20;25.30
68385;DHT22;55336;43.062;25.626;2022-11-02T10:33:03;29.40;25.10
68385;DHT22;55336;43.062;25.626;2022-11-02T10:35:40;29.90;25.60
68385;DHT22;55336;43.062;25.626;2022-11-02T10:41:17;29.50;26.10
68385;DHT22;55336;43.062;25.626;2022-11-02T10:46:22;29.40;26.00
68385;DHT22;55336;43.062;25.626;2022-11-02T10:51:18;29.90;24.70
68385;DHT22;55336;43.062;25.626;2022-11-02T10:53:46;29.70;25.20
68385;DHT22;55336;43.062;25.626;2022-11-02T11:01:12;30.20;25.10
68385;DHT22;55336;43.062;25.626;2022-11-02T11:06:20;30.80;24.50
68385;DHT22;55336;43.062;25.626;2022-11-02T11:08:46;30.00;25.10
68385;DHT22;55336;43.062;25.626;2022-11-02T11:11:23;30.00;25.80
68385;DHT22;55336;43.062;25.626;2022-11-02T11:16:35;30.30;26.10
68385;DHT22;55336;43.062;25.626;2022-11-02T11:19:13;30.10;25.80
68385;DHT22;55336;43.062;25.626;2022-11-02T11:21:41;30.20;25.90
68385;DHT22;55336;43.062;25.626;2022-11-02T11:27:04;30.40;25.60
68385;DHT22;55336;43.062;25.626;2022-11-02T11:29:38;30.50;24.20
68385;DHT22;55336;43.062;25.626;2022-11-02T11:32:11;30.50;23.60
68385;DHT22;55336;43.062;25.626;2022-11-02T11:34:38;30.30;23.20
68385;DHT22;55336;43.062;25.626;2022-11-02T11:37:07;30.10;23.00
68385;DHT22;55336;43.062;25.626;2022-11-02T11:39:34;30.40;22.70
68385;DHT22;55336;43.062;25.626;2022-11-02T11:42:01;30.10;23.00
68385;DHT22;55336;43.062;25.626;2022-11-02T11:44:27;30.30;23.50
68385;DHT22;55336;43.062;25.626;2022-11-02T11:46:55;30.30;21.50
68385;DHT22;55336;43.062;25.626;2022-11-02T11:49:28;30.10;21.90
68385;DHT22;55336;43.062;25.626;2022-11-02T11:51:55;30.00;22.00
68385;DHT22;55336;43.062;25.626;2022-11-02T11:54:24;30.40;21.20
68385;DHT22;55336;43.062;25.626;2022-11-02T11:56:52;30.40;21.80
68385;DHT22;55336;43.062;25.626;2022-11-02T11:59:19;30.20;22.30
68385;DHT22;55336;43.062;25.626;2022-11-02T12:01:45;30.20;22.90
68385;DHT22;55336;43.062;25.626;2022-11-02T12:04:11;30.30;22.30
68385;DHT22;55336;43.062;25.626;2022-11-02T12:16:48;30.10;23.70
68385;DHT22;55336;43.062;25.626;2022-11-02T12:22:09;29.90;22.70
68385;DHT22;55336;43.062;25.626;2022-11-02T12:24:41;30.00;23.30
68385;DHT22;55336;43.062;25.626;2022-11-02T12:32:31;30.20;23.20
68385;DHT22;55336;43.062;25.626;2022-11-02T12:35:35;29.90;23.60
68385;DHT22;55336;43.062;25.626;2022-11-02T12:43:18;29.70;24.20
68385;DHT22;55336;43.062;25.626;2022-11-02T12:48:13;29.30;24.80
68385;DHT22;55336;43.062;25.626;2022-11-02T12:53:33;29.30;24.40
68385;DHT22;55336;43.062;25.626;2022-11-02T12:56:02;29.00;25.20
68385;DHT22;55336;43.062;25.626;2022-11-02T12:58:31;28.90;25.30
68385;DHT22;55336;43.062;25.626;2022-11-02T13:01:00;28.90;25.30
68385;DHT22;55336;43.062;25.626;2022-11-02T13:05:57;28.80;25.50
68385;DHT22;55336;43.062;25.626;2022-11-02T13:08:49;28.70;26.10
68385;DHT22;55336;43.062;25.626;2022-11-02T13:11:14;28.60;26.20
68385;DHT22;55336;43.062;25.626;2022-11-02T13:13:43;28.60;26.40
68385;DHT22;55336;43.062;25.626;2022-11-02T13:16:09;28.50;26.50
68385;DHT22;55336;43.062;25.626;2022-11-02T13:18:51;28.50;26.90
68385;DHT22;55336;43.062;25.626;2022-11-02T13:21:20;28.50;26.50
68385;DHT22;55336;43.062;25.626;2022-11-02T13:23:52;28.60;26.20
68385;DHT22;55336;43.062;25.626;2022-11-02T13:26:25;28.70;26.30
68385;DHT22;55336;43.062;25.626;2022-11-02T13:29:15;29.00;25.70
68385;DHT22;55336;43.062;25.626;2022-11-02T13:31:42;28.90;24.90
68385;DHT22;55336;43.062;25.626;2022-11-02T13:34:17;28.90;24.40
68385;DHT22;55336;43.062;25.626;2022-11-02T13:36:43;29.10;24.90
68385;DHT22;55336;43.062;25.626;2022-11-02T13:39:15;29.10;24.40
68385;DHT22;55336;43.062;25.626;2022-11-02T13:44:26;28.90;22.40
68385;DHT22;55336;43.062;25.626;2022-11-02T13:47:03;28.80;22.40
68385;DHT22;55336;43.062;25.626;2022-11-02T13:49:35;28.70;23.00
68385;DHT22;55336;43.062;25.626;2022-11-02T13:52:08;28.60;22.80
68385;DHT22;55336;43.062;25.626;2022-11-02T13:54:38;28.40;23.10
68385;DHT22;55336;43.062;25.626;2022-11-02T13:57:05;28.50;22.80
68385;DHT22;55336;43.062;25.626;2022-11-02T13:59:42;28.20;23.50
68385;DHT22;55336;43.062;25.626;2022-11-02T14:02:10;28.20;22.90
68385;DHT22;55336;43.062;25.626;2022-11-02T14:04:38;28.30;23.10
68385;DHT22;55336;43.062;25.626;2022-11-02T14:07:06;28.30;22.80
68385;DHT22;55336;43.062;25.626;2022-11-02T14:09:34;28.20;23.50
68385;DHT22;55336;43.062;25.626;2022-11-02T14:14:42;28.10;24.30
68385;DHT22;55336;43.062;25.626;2022-11-02T14:17:08;28.10;24.20
68385;DHT22;55336;43.062;25.626;2022-11-02T14:22:07;28.10;24.80
68385;DHT22;55336;43.062;25.626;2022-11-02T14:27:01;27.80;25.40
68385;DHT22;55336;43.062;25.626;2022-11-02T14:40:13;25.60;29.10
68385;DHT22;55336;43.062;25.626;2022-11-02T14:47:44;24.60;31.50
68385;DHT22;55336;43.062;25.626;2022-11-02T14:50:15;24.20;33.50
68385;DHT22;55336;43.062;25.626;2022-11-02T14:52:42;23.70;35.10
68385;DHT22;55336;43.062;25.626;2022-11-02T14:57:50;23.00;36.10
68385;DHT22;55336;43.062;25.626;2022-11-02T15:00:22;22.60;38.10
68385;DHT22;55336;43.062;25.626;2022-11-02T15:02:49;22.10;39.40
68385;DHT22;55336;43.062;25.626;2022-11-02T15:05:38;21.70;39.80
68385;DHT22;55336;43.062;25.626;2022-11-02T15:15:39;20.20;44.20
68385;DHT22;55336;43.062;25.626;2022-11-02T15:26:05;18.80;48.90
68385;DHT22;55336;43.062;25.626;2022-11-02T15:28:36;18.50;50.00
68385;DHT22;55336;43.062;25.626;2022-11-02T15:31:05;18.20;50.90
68385;DHT22;55336;43.062;25.626;2022-11-02T15:33:38;17.90;51.90
68385;DHT22;55336;43.062;25.626;2022-11-02T15:36:06;17.60;53.20
68385;DHT22;55336;43.062;25.626;2022-11-02T15:38:33;17.30;54.00
68385;DHT22;55336;43.062;25.626;2022-11-02T15:49:06;16.20;56.50
68385;DHT22;55336;43.062;25.626;2022-11-02T15:59:44;15.40;60.40
68385;DHT22;55336;43.062;25.626;2022-11-02T16:03:15;15.20;61.30
68385;DHT22;55336;43.062;25.626;2022-11-02T16:05:16;15.00;62.00
68385;DHT22;55336;43.062;25.626;2022-11-02T16:07:45;14.80;63.10
68385;DHT22;55336;43.062;25.626;2022-11-02T16:10:18;14.60;64.70
68385;DHT22;55336;43.062;25.626;2022-11-02T16:12:45;14.50;65.70
68385;DHT22;55336;43.062;25.626;2022-11-02T16:15:12;14.30;65.60
68385;DHT22;55336;43.062;25.626;2022-11-02T16:17:38;14.20;66.00
68385;DHT22;55336;43.062;25.626;2022-11-02T16:20:23;14.00;67.60
68385;DHT22;55336;43.062;25.626;2022-11-02T16:22:54;13.90;67.50
68385;DHT22;55336;43.062;25.626;2022-11-02T16:27:48;13.70;71.30
68385;DHT22;55336;43.062;25.626;2022-11-02T16:30:18;13.80;71.70
68385;DHT22;55336;43.062;25.626;2022-11-02T16:32:44;13.70;70.10
68385;DHT22;55336;43.062;25.626;2022-11-02T16:35:14;13.60;70.40
68385;DHT22;55336;43.062;25.626;2022-11-02T16:37:41;13.60;71.10
68385;DHT22;55336;43.062;25.626;2022-11-02T16:40:12;13.50;70.60
68385;DHT22;55336;43.062;25.626;2022-11-02T16:42:39;13.40;70.10
68385;DHT22;55336;43.062;25.626;2022-11-02T16:45:09;13.30;70.60
68385;DHT22;55336;43.062;25.626;2022-11-02T16:47:51;13.20;72.30
68385;DHT22;55336;43.062;25.626;2022-11-02T16:50:20;13.10;73.00
68385;DHT22;55336;43.062;25.626;2022-11-02T16:52:58;13.00;72.00
68385;DHT22;55336;43.062;25.626;2022-11-02T16:55:36;12.90;72.80
68385;DHT22;55336;43.062;25.626;2022-11-02T16:58:03;12.80;72.10
68385;DHT22;55336;43.062;25.626;2022-11-02T17:00:29;12.70;74.00
68385;DHT22;55336;43.062;25.626;2022-11-02T17:02:55;12.60;73.10
68385;DHT22;55336;43.062;25.626;2022-11-02T17:05:22;12.40;74.20
68385;DHT22;55336;43.062;25.626;2022-11-02T17:08:18;12.30;75.10
68385;DHT22;55336;43.062;25.626;2022-11-02T17:10:34;12.20;75.50
68385;DHT22;55336;43.062;25.626;2022-11-02T17:13:01;12.10;76.40
68385;DHT22;55336;43.062;25.626;2022-11-02T17:15:28;12.00;76.70
68385;DHT22;55336;43.062;25.626;2022-11-02T17:20:31;11.90;79.10
68385;DHT22;55336;43.062;25.626;2022-11-02T17:23:00;12.00;79.50
68385;DHT22;55336;43.062;25.626;2022-11-02T17:25:27;11.90;78.90
68385;DHT22;55336;43.062;25.626;2022-11-02T17:27:54;11.80;79.20
68385;DHT22;55336;43.062;25.626;2022-11-02T17:35:32;11.50;81.10
68385;DHT22;55336;43.062;25.626;2022-11-02T17:37:58;11.40;81.60
68385;DHT22;55336;43.062;25.626;2022-11-02T17:40:24;11.30;82.30
68385;DHT22;55336;43.062;25.626;2022-11-02T17:42:49;11.40;87.00
68385;DHT22;55336;43.062;25.626;2022-11-02T17:45:28;11.30;85.50
68385;DHT22;55336;43.062;25.626;2022-11-02T17:47:55;11.20;85.80
68385;DHT22;55336;43.062;25.626;2022-11-02T17:50:21;11.10;86.90
68385;DHT22;55336;43.062;25.626;2022-11-02T17:52:47;11.10;87.20
68385;DHT22;55336;43.062;25.626;2022-11-02T17:55:15;11.00;89.20
68385;DHT22;55336;43.062;25.626;2022-11-02T17:57:41;10.90;89.20
68385;DHT22;55336;43.062;25.626;2022-11-02T18:00:07;10.80;90.90
68385;DHT22;55336;43.062;25.626;2022-11-02T18:02:33;10.80;92.30
68385;DHT22;55336;43.062;25.626;2022-11-02T18:04:59;10.70;93.70
68385;DHT22;55336;43.062;25.626;2022-11-02T18:07:25;10.60;95.30
68385;DHT22;55336;43.062;25.626;2022-11-02T18:09:50;10.60;98.00
68385;DHT22;55336;43.062;25.626;2022-11-02T18:12:16;10.60;99.90